Time;durP1;ratioP1;P1;durP2;ratioP2;P2;SDS_P1;SDS_P2;PMS_P1;PMS_P2;Temp;Humidity;BMP_temperature;BMP_pressure;BME280_temperature;BME280_humidity;BME280_pressure;Samples;Min_cycle;Max_cycle;Signal;HPM_P1;HPM_P2
2021/04/22 00:02:03;;;;;;;14.85;10.55;;;8.50;99.90;;;;;;6236136;23;20043;-81
2021/04/22 00:04:31;;;;;;;13.13;9.20;;;8.40;99.90;;;;;;6259555;23;20020;-82
2021/04/22 00:07:04;;;;;;;14.65;10.13;;;8.40;99.90;;;;;;6260133;23;20036;-82
2021/04/22 00:09:35;;;;;;;16.10;9.95;;;8.40;99.90;;;;;;6208614;23;20020;-82
2021/04/22 00:12:06;;;;;;;12.75;9.68;;;8.40;99.90;;;;;;6232863;22;20454;-81
2021/04/22 00:14:37;;;;;;;12.82;9.50;;;8.40;99.90;;;;;;6257159;23;20412;-82
2021/04/22 00:17:10;;;;;;;12.43;9.05;;;8.40;99.90;;;;;;6229797;23;20020;-82
2021/04/22 00:19:38;;;;;;;10.13;8.27;;;8.40;99.90;;;;;;6254442;23;20134;-81
2021/04/22 00:22:05;;;;;;;14.35;9.50;;;8.50;99.90;;;;;;6251520;22;20020;-81
2021/04/22 00:24:32;;;;;;;12.65;9.68;;;8.50;99.90;;;;;;6223756;23;20400;-80
2021/04/22 00:26:59;;;;;;;13.18;9.23;;;8.50;99.90;;;;;;6221312;23;20020;-81
2021/04/22 00:29:26;;;;;;;13.55;10.40;;;8.60;99.90;;;;;;6245161;23;20369;-81
2021/04/22 00:31:52;;;;;;;16.58;10.70;;;8.70;99.90;;;;;;6244877;22;20519;-81
2021/04/22 00:34:19;;;;;;;13.18;9.77;;;8.70;99.90;;;;;;6244875;23;20082;-81
2021/04/22 00:36:46;;;;;;;16.30;10.55;;;8.70;99.90;;;;;;6219863;23;20032;-82
2021/04/22 00:39:18;;;;;;;14.15;10.07;;;8.70;99.90;;;;;;6221122;23;20031;-81
2021/04/22 00:41:50;;;;;;;16.80;10.45;;;8.70;99.90;;;;;;6245510;22;20012;-81
2021/04/22 00:44:21;;;;;;;13.13;9.82;;;8.70;99.90;;;;;;6221668;23;20020;-81
2021/04/22 00:46:53;;;;;;;12.30;9.18;;;8.60;99.90;;;;;;6245581;23;20012;-81
2021/04/22 00:49:20;;;;;;;12.40;9.82;;;8.50;99.90;;;;;;6244739;23;20020;-81
2021/04/22 00:51:47;;;;;;;13.20;9.82;;;8.50;99.90;;;;;;6220623;22;20082;-82
2021/04/22 00:54:15;;;;;;;15.30;10.40;;;8.40;99.90;;;;;;6245472;23;20020;-82
2021/04/22 00:56:43;;;;;;;12.45;9.65;;;8.40;99.90;;;;;;6220803;23;20016;-81
2021/04/22 00:59:15;;;;;;;16.58;12.48;;;8.30;99.90;;;;;;6220888;23;20023;-81
2021/04/22 01:01:42;;;;;;;12.27;9.57;;;8.30;99.90;;;;;;6220952;23;20020;-81
2021/04/22 01:04:14;;;;;;;14.02;8.85;;;8.20;99.90;;;;;;6233989;23;20032;-81
2021/04/22 01:06:41;;;;;;;14.98;9.30;;;8.10;99.90;;;;;;6222735;23;20401;-80
2021/04/22 01:09:13;;;;;;;12.88;9.10;;;8.10;99.90;;;;;;6223436;23;20039;-81
2021/04/22 01:11:45;;;;;;;13.65;9.05;;;8.10;99.90;;;;;;6247380;23;20019;-81
2021/04/22 01:14:12;;;;;;;13.48;9.40;;;8.10;99.90;;;;;;6222956;23;20016;-82
2021/04/22 01:16:39;;;;;;;13.45;9.05;;;8.00;99.90;;;;;;6222666;23;20016;-81
2021/04/22 01:19:13;;;;;;;13.85;9.23;;;8.00;99.90;;;;;;6224917;23;20323;-82
2021/04/22 01:21:45;;;;;;;13.38;9.82;;;8.00;99.90;;;;;;6224731;23;20380;-82
2021/04/22 01:24:18;;;;;;;12.73;9.00;;;7.90;99.90;;;;;;6225072;23;20118;-81
2021/04/22 01:26:50;;;;;;;12.38;8.73;;;7.90;99.90;;;;;;6248851;23;20019;-81
2021/04/22 01:29:17;;;;;;;14.70;9.32;;;7.80;99.90;;;;;;6249394;23;20012;-80
2021/04/22 01:31:43;;;;;;;12.07;9.15;;;7.80;99.90;;;;;;6248739;23;20030;-81
2021/04/22 01:34:11;;;;;;;11.60;8.65;;;7.80;99.90;;;;;;6223038;23;20016;-82
2021/04/22 01:36:43;;;;;;;13.90;9.57;;;7.80;99.90;;;;;;6223357;23;20102;-81
2021/04/22 01:39:13;;;;;;;12.65;8.75;;;7.80;99.90;;;;;;6222530;23;20016;-80
2021/04/22 01:41:41;;;;;;;13.50;9.15;;;7.70;99.90;;;;;;6222829;23;20467;-81
2021/04/22 01:44:09;;;;;;;11.35;8.75;;;7.60;99.90;;;;;;6247577;22;20024;-82
2021/04/22 01:46:41;;;;;;;12.73;9.27;;;7.50;99.90;;;;;;6223559;23;20012;-81
2021/04/22 01:49:13;;;;;;;12.63;8.70;;;7.50;99.90;;;;;;6223580;23;20024;-81
2021/04/22 01:51:39;;;;;;;12.98;9.57;;;7.30;99.90;;;;;;6222816;23;20018;-81
2021/04/22 01:54:06;;;;;;;13.07;9.75;;;7.30;99.90;;;;;;6222870;23;20453;-81
2021/04/22 01:56:38;;;;;;;13.43;10.15;;;7.30;99.90;;;;;;6224120;23;20016;-81
2021/04/22 01:59:05;;;;;;;16.73;10.45;;;7.30;99.90;;;;;;6222162;23;20453;-81
2021/04/22 02:01:37;;;;;;;19.52;12.68;;;7.30;99.90;;;;;;6223342;23;20044;-81
2021/04/22 02:04:08;;;;;;;18.65;12.07;;;7.30;99.90;;;;;;6223223;23;20103;-81
2021/04/22 02:06:35;;;;;;;16.48;11.75;;;7.30;99.90;;;;;;6222187;23;20027;-81
2021/04/22 02:09:02;;;;;;;16.55;11.65;;;7.40;99.90;;;;;;6247285;23;20102;-81
2021/04/22 02:11:29;;;;;;;17.85;11.85;;;7.40;99.90;;;;;;6222060;23;20096;-82
2021/04/22 02:13:56;;;;;;;18.25;13.18;;;7.40;99.90;;;;;;6221866;23;20404;-81
2021/04/22 02:16:28;;;;;;;17.17;11.68;;;7.40;99.90;;;;;;6222891;23;20043;-82
2021/04/22 02:18:55;;;;;;;18.80;11.93;;;7.40;99.90;;;;;;6247096;23;20023;-81
2021/04/22 02:21:26;;;;;;;15.18;11.57;;;7.50;99.90;;;;;;6247723;23;20012;-81
2021/04/22 02:23:58;;;;;;;29.48;13.05;;;7.50;99.90;;;;;;6223036;23;20016;-81
2021/04/22 02:26:25;;;;;;;18.23;13.00;;;7.50;99.90;;;;;;6222301;23;20545;-81
2021/04/22 02:28:52;;;;;;;15.63;12.65;;;7.50;99.90;;;;;;6221485;23;20024;-81
2021/04/22 02:31:23;;;;;;;17.15;12.95;;;7.50;99.90;;;;;;6222658;23;20082;-81
2021/04/22 02:33:53;;;;;;;20.40;13.30;;;7.40;99.90;;;;;;6221227;23;20107;-81
2021/04/22 02:36:24;;;;;;;17.63;12.02;;;7.40;99.90;;;;;;6223314;23;20015;-81
2021/04/22 02:38:51;;;;;;;18.48;12.50;;;7.40;99.90;;;;;;6246311;23;20020;-81
2021/04/22 02:41:23;;;;;;;16.95;12.68;;;7.30;99.90;;;;;;6222690;23;20012;-81
2021/04/22 02:43:49;;;;;;;19.17;13.80;;;7.30;99.90;;;;;;6221522;23;20040;-81
2021/04/22 02:46:16;;;;;;;19.15;13.30;;;7.20;99.90;;;;;;6247575;23;20089;-81
2021/04/22 02:48:48;;;;;;;18.55;13.05;;;7.20;99.90;;;;;;6222494;23;20016;-81
2021/04/22 02:51:19;;;;;;;18.88;13.82;;;7.10;99.90;;;;;;6223450;23;20059;-81
2021/04/22 02:53:51;;;;;;;18.83;14.18;;;7.10;99.90;;;;;;6246654;22;20356;-81
2021/04/22 02:56:17;;;;;;;20.58;14.38;;;7.10;99.90;;;;;;6246061;23;20024;-81
2021/04/22 02:58:44;;;;;;;19.05;13.45;;;7.10;99.90;;;;;;6220679;23;20038;-81
2021/04/22 03:01:11;;;;;;;19.48;12.27;;;7.10;99.90;;;;;;6221677;23;20020;-81
2021/04/22 03:03:42;;;;;;;19.50;13.65;;;7.00;99.90;;;;;;6247075;22;20437;-81
2021/04/22 03:06:14;;;;;;;19.65;13.43;;;7.00;99.90;;;;;;6222638;23;20327;-81
2021/04/22 03:08:46;;;;;;;20.77;14.32;;;6.90;99.90;;;;;;6222444;23;20103;-80
2021/04/22 03:11:17;;;;;;;22.63;15.10;;;6.90;99.90;;;;;;6221899;23;20016;-81
2021/04/22 03:13:44;;;;;;;19.42;14.23;;;6.80;99.90;;;;;;6221762;23;20044;-80
2021/04/22 03:16:10;;;;;;;22.23;14.40;;;6.70;99.90;;;;;;6220739;23;20229;-81
2021/04/22 03:18:42;;;;;;;20.83;14.07;;;6.70;99.90;;;;;;6220423;23;20099;-81
2021/04/22 03:21:08;;;;;;;23.50;14.18;;;6.60;99.90;;;;;;6221382;23;20030;-81
2021/04/22 03:23:35;;;;;;;20.85;13.80;;;6.60;99.90;;;;;;6220918;23;20013;-80
2021/04/22 03:26:02;;;;;;;23.98;14.55;;;6.50;99.90;;;;;;6246101;23;20349;-81
2021/04/22 03:28:28;;;;;;;20.95;14.88;;;6.50;99.90;;;;;;6219875;23;20368;-81
2021/04/22 03:31:00;;;;;;;23.48;15.20;;;6.50;99.90;;;;;;6245892;23;20484;-81
2021/04/22 03:33:26;;;;;;;19.63;13.68;;;6.50;99.90;;;;;;6221682;23;20048;-81
2021/04/22 03:35:57;;;;;;;21.55;13.82;;;6.60;99.90;;;;;;6246622;23;20064;-81
2021/04/22 03:38:29;;;;;;;19.20;13.68;;;6.60;99.90;;;;;;6246219;23;20016;-81
2021/04/22 03:41:00;;;;;;;21.23;13.40;;;6.60;99.90;;;;;;6246767;23;20075;-81
2021/04/22 03:43:32;;;;;;;18.85;13.70;;;6.50;99.90;;;;;;6222335;23;20080;-81
2021/04/22 03:46:03;;;;;;;20.58;14.50;;;6.30;99.90;;;;;;6245933;23;20090;-81
2021/04/22 03:48:34;;;;;;;21.98;14.70;;;6.20;99.90;;;;;;6244756;23;20039;-81
2021/04/22 03:51:05;;;;;;;21.77;14.70;;;6.00;99.90;;;;;;6196053;23;20476;-81
2021/04/22 03:53:37;;;;;;;24.65;15.10;;;6.10;99.90;;;;;;6219323;23;20119;-80
2021/04/22 03:56:03;;;;;;;26.60;16.17;;;6.10;99.90;;;;;;6196703;23;20020;-81
2021/04/22 03:58:30;;;;;;;22.48;15.55;;;6.20;99.90;;;;;;6219651;23;20035;-81
2021/04/22 04:01:02;;;;;;;19.42;13.77;;;6.30;99.90;;;;;;6219803;23;20429;-81
2021/04/22 04:03:29;;;;;;;20.23;13.52;;;6.40;99.90;;;;;;6247311;22;20107;-80
2021/04/22 04:05:56;;;;;;;21.75;13.48;;;6.40;99.90;;;;;;6220917;23;20024;-80
2021/04/22 04:08:27;;;;;;;22.23;15.05;;;6.30;99.90;;;;;;6195630;23;20444;-79
2021/04/22 04:10:53;;;;;;;21.88;14.63;;;6.30;99.90;;;;;;6247011;23;20066;-81
2021/04/22 04:13:25;;;;;;;20.98;13.38;;;6.30;99.90;;;;;;6221248;23;20023;-81
2021/04/22 04:15:56;;;;;;;19.55;13.18;;;6.30;99.90;;;;;;6195837;23;20344;-81
2021/04/22 04:18:28;;;;;;;20.40;13.82;;;6.30;99.90;;;;;;6219756;23;20047;-81
2021/04/22 04:20:59;;;;;;;18.35;12.48;;;6.30;99.90;;;;;;6195912;23;20055;-81
2021/04/22 04:23:30;;;;;;;18.83;12.15;;;6.30;99.90;;;;;;6195535;23;20013;-81
2021/04/22 04:25:56;;;;;;;19.48;12.68;;;6.30;99.90;;;;;;6219515;23;20034;-81
2021/04/22 04:28:28;;;;;;;18.50;13.68;;;6.30;99.90;;;;;;6195429;23;20367;-81
2021/04/22 04:30:54;;;;;;;21.02;12.93;;;6.30;99.90;;;;;;6219959;23;20461;-81
2021/04/22 04:33:21;;;;;;;18.90;13.07;;;6.30;99.90;;;;;;6218980;23;20059;-78
2021/04/22 04:35:52;;;;;;;19.38;13.45;;;6.30;99.90;;;;;;6217161;23;20012;-77
2021/04/22 04:38:23;;;;;;;20.48;13.40;;;6.30;99.90;;;;;;6192755;23;20059;-78
2021/04/22 04:40:55;;;;;;;21.70;13.50;;;6.30;99.90;;;;;;6193342;23;20031;-78
2021/04/22 04:43:26;;;;;;;23.25;13.80;;;6.30;99.90;;;;;;6218042;23;20016;-78
2021/04/22 04:45:57;;;;;;;23.00;14.57;;;6.20;99.90;;;;;;6218772;23;20096;-78
2021/04/22 04:48:28;;;;;;;21.08;13.82;;;6.30;99.90;;;;;;6217795;23;20099;-77
2021/04/22 04:50:59;;;;;;;24.27;14.60;;;6.30;99.90;;;;;;6218311;23;20016;-77
2021/04/22 04:53:31;;;;;;;19.58;13.95;;;6.30;99.90;;;;;;6192430;23;20077;-78
2021/04/22 04:56:02;;;;;;;20.08;14.55;;;6.30;99.90;;;;;;6243206;23;20022;-78
2021/04/22 04:58:34;;;;;;;21.80;15.07;;;6.40;99.90;;;;;;6215912;23;20012;-78
2021/04/22 05:01:05;;;;;;;21.90;14.77;;;6.40;99.90;;;;;;6218661;23;20469;-77
2021/04/22 05:03:36;;;;;;;22.80;14.07;;;6.50;99.90;;;;;;6216348;23;20095;-77
2021/04/22 05:06:07;;;;;;;21.15;14.27;;;6.50;99.90;;;;;;6192404;23;20016;-78
2021/04/22 05:08:38;;;;;;;21.13;13.80;;;6.60;99.90;;;;;;6215775;23;20100;-77
2021/04/22 05:11:05;;;;;;;21.52;14.48;;;6.70;99.90;;;;;;6191230;23;20027;-78
2021/04/22 05:13:36;;;;;;;42.72;21.90;;;6.70;99.90;;;;;;6242719;22;20457;-77
2021/04/22 05:16:07;;;;;;;33.90;20.98;;;6.70;99.90;;;;;;6191396;23;20628;-77
2021/04/22 05:18:39;;;;;;;55.28;29.55;;;6.70;99.90;;;;;;6186354;23;20027;-78
2021/04/22 05:21:10;;;;;;;32.08;19.40;;;6.70;99.90;;;;;;6214489;23;20017;-77
2021/04/22 05:23:41;;;;;;;27.73;19.05;;;6.60;99.90;;;;;;6215708;23;20119;-78
2021/04/22 05:26:13;;;;;;;24.65;16.60;;;6.60;99.90;;;;;;6192509;23;20022;-78
2021/04/22 05:28:42;;;;;;;26.58;16.92;;;6.60;99.90;;;;;;6216890;23;20020;-78
2021/04/22 05:31:14;;;;;;;22.77;15.95;;;6.50;99.90;;;;;;6216006;23;20063;-78
2021/04/22 05:33:40;;;;;;;27.30;17.20;;;6.50;99.90;;;;;;6190578;23;20051;-77
2021/04/22 05:36:11;;;;;;;23.42;17.10;;;6.50;99.90;;;;;;6191837;23;20102;-78
2021/04/22 05:38:43;;;;;;;26.05;16.92;;;6.50;99.90;;;;;;6215543;23;20012;-78
2021/04/22 05:41:09;;;;;;;26.70;17.85;;;6.60;99.90;;;;;;6187640;23;20524;-78
2021/04/22 05:43:40;;;;;;;28.55;17.70;;;6.60;99.90;;;;;;6188460;23;20534;-78
2021/04/22 05:46:07;;;;;;;28.15;17.45;;;6.80;99.90;;;;;;6211772;23;20111;-77
2021/04/22 05:48:38;;;;;;;25.75;17.02;;;6.80;99.90;;;;;;6191958;23;20442;-78
2021/04/22 05:51:09;;;;;;;35.85;16.45;;;6.90;99.90;;;;;;6216752;23;20016;-78
2021/04/22 05:53:40;;;;;;;24.60;16.20;;;7.00;99.90;;;;;;6193129;23;20022;-78
2021/04/22 05:56:12;;;;;;;25.85;17.60;;;7.20;99.90;;;;;;6243041;23;20016;-78
2021/04/22 05:58:43;;;;;;;25.98;17.23;;;7.30;99.90;;;;;;6240803;23;20092;-78
2021/04/22 06:01:14;;;;;;;24.95;16.88;;;7.40;99.90;;;;;;6241146;23;20107;-78
2021/04/22 06:03:46;;;;;;;27.42;17.10;;;7.40;99.90;;;;;;6214117;23;20608;-77
2021/04/22 06:06:17;;;;;;;25.85;16.15;;;7.50;99.90;;;;;;6184102;23;20023;-78
2021/04/22 06:08:49;;;;;;;28.73;20.38;;;7.60;99.90;;;;;;6190438;23;20024;-77
2021/04/22 06:11:20;;;;;;;43.10;25.23;;;7.70;99.90;;;;;;6215678;23;20026;-77
2021/04/22 06:13:51;;;;;;;32.03;20.73;;;7.80;99.90;;;;;;6187035;23;20098;-78
2021/04/22 06:16:23;;;;;;;24.20;17.17;;;7.80;99.90;;;;;;6210997;23;20016;-78
2021/04/22 06:18:50;;;;;;;22.88;15.07;;;7.80;99.90;;;;;;6186799;23;20062;-77
2021/04/22 06:21:22;;;;;;;25.02;15.98;;;7.90;99.90;;;;;;6215180;23;20445;-78
2021/04/22 06:23:53;;;;;;;54.53;33.75;;;7.90;99.90;;;;;;6186564;23;20016;-78
2021/04/22 06:26:25;;;;;;;75.65;44.50;;;7.90;99.90;;;;;;6237755;23;20016;-77
2021/04/22 06:29:00;;;;;;;27.85;19.23;;;8.00;99.90;;;;;;6211711;23;20020;-78
2021/04/22 06:31:32;;;;;;;23.05;15.85;;;8.10;99.90;;;;;;6215052;23;20022;-78
2021/04/22 06:34:03;;;;;;;23.13;16.95;;;8.10;99.90;;;;;;6213146;23;20356;-78
2021/04/22 06:36:35;;;;;;;28.80;17.20;;;8.10;99.90;;;;;;6214780;23;20017;-78
2021/04/22 06:39:06;;;;;;;24.83;16.70;;;8.10;99.90;;;;;;6189753;23;20483;-78
2021/04/22 06:41:38;;;;;;;26.38;16.77;;;8.20;99.90;;;;;;6214408;23;20016;-77
2021/04/22 06:44:04;;;;;;;24.85;17.15;;;8.10;99.90;;;;;;6215057;23;20044;-78
2021/04/22 06:46:38;;;;;;;25.40;17.83;;;8.10;99.90;;;;;;6217301;23;20232;-78
2021/04/22 06:49:04;;;;;;;28.50;17.77;;;8.10;99.90;;;;;;6192734;23;20044;-78
2021/04/22 06:51:35;;;;;;;27.70;19.33;;;8.20;99.90;;;;;;6239929;23;20016;-78
2021/04/22 06:54:07;;;;;;;24.63;18.58;;;8.20;99.90;;;;;;6240291;22;20020;-78
2021/04/22 06:56:38;;;;;;;24.92;17.20;;;8.20;99.90;;;;;;6240437;23;20095;-78
2021/04/22 06:59:10;;;;;;;24.65;18.20;;;8.20;99.90;;;;;;6239272;23;20016;-78
2021/04/22 07:01:42;;;;;;;40.95;25.90;;;8.30;99.90;;;;;;6239382;23;20325;-77
2021/04/22 07:04:13;;;;;;;26.73;18.27;;;8.40;99.90;;;;;;6239177;23;20044;-78
2021/04/22 07:06:45;;;;;;;36.35;21.55;;;8.50;99.90;;;;;;6240118;23;20204;-78
2021/04/22 07:09:14;;;;;;;137.10;84.93;;;8.60;99.90;;;;;;6214470;23;20103;-78
2021/04/22 07:11:45;;;;;;;38.47;26.33;;;8.60;99.90;;;;;;6240460;23;20044;-78
2021/04/22 07:14:17;;;;;;;30.63;21.10;;;8.70;99.90;;;;;;6240288;23;20016;-78
2021/04/22 07:16:48;;;;;;;29.30;20.25;;;8.80;99.90;;;;;;6241590;22;20026;-78
2021/04/22 07:19:19;;;;;;;26.02;18.25;;;8.80;99.90;;;;;;6214171;23;20411;-78
2021/04/22 07:21:50;;;;;;;27.30;18.30;;;8.90;99.90;;;;;;6240075;22;20091;-78
2021/04/22 07:24:21;;;;;;;29.80;20.90;;;8.90;99.90;;;;;;6240076;23;20012;-78
2021/04/22 07:26:53;;;;;;;27.85;19.65;;;9.00;99.90;;;;;;6235652;23;20016;-78
2021/04/22 07:29:24;;;;;;;28.10;20.42;;;9.10;99.90;;;;;;6240103;23;20099;-78
2021/04/22 07:31:55;;;;;;;32.75;20.00;;;9.20;99.90;;;;;;6240262;22;20357;-78
2021/04/22 07:34:21;;;;;;;28.17;20.05;;;9.30;99.90;;;;;;6240447;23;20091;-78
2021/04/22 07:36:55;;;;;;;37.38;29.40;;;9.30;99.90;;;;;;6245217;23;20584;-80
2021/04/22 07:39:22;;;;;;;26.67;19.38;;;9.40;99.90;;;;;;6229213;23;20235;-81
2021/04/22 07:41:51;;;;;;;39.47;31.08;;;9.50;99.90;;;;;;6230069;22;20396;-81
2021/04/22 07:55:07;;;;;;;33.97;19.48;;;9.80;99.90;;;;;;6199198;23;20045;-80
2021/04/22 07:57:35;;;;;;;24.00;17.67;;;9.80;99.90;;;;;;6148471;23;20017;-81
2021/04/22 08:00:06;;;;;;;25.52;17.63;;;10.00;99.90;;;;;;6170258;23;20021;-80
2021/04/22 08:02:33;;;;;;;32.60;21.52;;;10.10;99.90;;;;;;6155991;23;20024;-83
2021/04/22 08:05:03;;;;;;;27.63;19.92;;;10.20;99.90;;;;;;6201931;23;20039;-82
2021/04/22 08:07:30;;;;;;;32.25;20.42;;;10.30;99.90;;;;;;6202820;23;20063;-82
2021/04/22 08:15:49;;;;;;;23.23;17.42;;;10.50;99.90;;;;;;6136444;23;20498;-81
2021/04/22 08:27:28;;;;;;;21.98;15.88;;;10.80;99.90;;;;;;6138398;23;20028;-82
2021/04/22 08:31:28;;;;;;;33.25;23.95;;;11.00;99.90;;;;;;6112592;23;20021;-82
2021/04/22 08:34:43;;;;;;;29.52;18.77;;;11.20;99.90;;;;;;6320357;22;20042;-82
2021/04/22 08:37:38;;;;;;;23.05;17.83;;;11.40;99.90;;;;;;6278766;22;20471;-82
2021/04/22 08:40:09;;;;;;;21.10;16.92;;;11.30;99.90;;;;;;6271518;22;20039;-82
2021/04/22 09:05:33;;;;;;;21.35;17.80;;;11.40;99.90;;;;;;6296367;22;20022;-81
2021/04/22 09:08:06;;;;;;;23.42;18.33;;;11.40;99.90;;;;;;6262968;22;20019;-81
2021/04/22 09:10:33;;;;;;;28.70;20.88;;;11.40;99.90;;;;;;6286837;22;20508;-81
2021/04/22 09:16:16;;;;;;;25.25;19.23;;;11.30;99.90;;;;;;6301302;22;20031;-82
2021/04/22 09:18:46;;;;;;;24.00;18.33;;;11.20;99.90;;;;;;6285209;22;20061;-82
2021/04/22 09:21:26;;;;;;;25.65;18.50;;;11.20;99.90;;;;;;6283957;22;20038;-82
2021/04/22 09:24:15;;;;;;;24.73;18.52;;;11.30;99.90;;;;;;6259634;22;20018;-81
2021/04/22 09:26:45;;;;;;;24.42;18.23;;;11.40;99.90;;;;;;6228869;22;20456;-81
2021/04/22 09:29:46;;;;;;;25.92;18.60;;;11.50;99.90;;;;;;6253810;22;20044;-81
2021/04/22 09:36:18;;;;;;;24.70;17.92;;;11.50;99.90;;;;;;6305046;22;20042;-82
2021/04/22 09:39:50;;;;;;;22.83;18.55;;;11.60;99.90;;;;;;6263465;22;20011;-82
2021/04/22 09:42:18;;;;;;;24.88;18.20;;;11.60;99.90;;;;;;6285359;22;20456;-81
2021/04/22 09:44:48;;;;;;;24.40;18.25;;;11.70;99.90;;;;;;6230371;22;20475;-80
2021/04/22 09:47:21;;;;;;;26.73;18.55;;;11.60;99.90;;;;;;6254525;22;20070;-82
2021/04/22 09:50:00;;;;;;;25.40;18.80;;;11.60;99.90;;;;;;6254935;22;20054;-80
2021/04/22 10:07:43;;;;;;;27.33;20.23;;;11.80;99.90;;;;;;6318644;22;20038;-82
2021/04/22 10:10:34;;;;;;;;;;;11.90;99.90;;;;;;6280883;22;20022;-81
2021/04/22 10:13:12;;;;;;;32.35;19.88;;;11.80;99.90;;;;;;6282959;22;19919;-82
2021/04/22 10:15:54;;;;;;;25.10;18.52;;;12.00;99.90;;;;;;6270884;22;20383;-81
2021/04/22 10:18:48;;;;;;;26.45;19.58;;;12.20;99.90;;;;;;6273010;22;20015;-81
2021/04/22 10:21:49;;;;;;;24.95;18.75;;;12.30;99.90;;;;;;6249148;22;20012;-82
2021/04/22 10:24:34;;;;;;;24.27;18.80;;;12.40;99.90;;;;;;6237865;23;20024;-79
2021/04/22 10:27:06;;;;;;;29.95;19.70;;;12.40;99.90;;;;;;6222847;22;20094;-80
2021/04/22 10:29:33;;;;;;;31.35;19.88;;;12.50;99.90;;;;;;6249488;22;20016;-80
2021/04/22 10:32:00;;;;;;;28.67;19.75;;;12.50;99.90;;;;;;6224403;22;20015;-81
2021/04/22 10:34:30;;;;;;;27.45;20.77;;;12.40;99.90;;;;;;6224798;22;20039;-80
2021/04/22 10:37:02;;;;;;;24.73;18.90;;;12.50;99.90;;;;;;6249343;22;20046;-81
2021/04/22 10:39:38;;;;;;;33.63;21.50;;;12.50;99.90;;;;;;6249310;22;20506;-79
2021/04/22 10:42:10;;;;;;;29.73;22.13;;;12.60;99.90;;;;;;6224416;22;20094;-79
2021/04/22 10:44:38;;;;;;;31.25;21.55;;;12.60;99.90;;;;;;6248578;22;20024;-80
2021/04/22 10:47:10;;;;;;;30.25;21.80;;;12.60;99.90;;;;;;6224887;22;20440;-81
2021/04/22 10:49:43;;;;;;;30.17;20.35;;;12.60;99.90;;;;;;6274303;22;20481;-80
2021/04/22 10:52:15;;;;;;;31.23;21.77;;;12.60;99.90;;;;;;6248757;22;20015;-79
2021/04/22 10:54:46;;;;;;;29.63;21.88;;;12.60;99.90;;;;;;6216868;22;20066;-74
2021/04/22 10:57:21;;;;;;;26.13;21.10;;;12.60;99.90;;;;;;6246386;22;20016;-74
2021/04/22 11:00:08;;;;;;;29.42;21.25;;;12.80;99.90;;;;;;6274651;22;20114;-81
2021/04/22 11:02:42;;;;;;;27.35;21.13;;;12.80;99.90;;;;;;6225101;22;20054;-80
2021/04/22 11:09:43;;;;;;;28.90;21.05;;;12.80;99.90;;;;;;6303350;22;20022;-82
2021/04/22 11:12:17;;;;;;;27.20;20.27;;;13.00;99.90;;;;;;6292401;22;20110;31
2021/04/22 11:19:37;;;;;;;30.08;21.10;;;13.50;99.90;;;;;;6151241;23;20049;-82
2021/04/22 11:26:16;;;;;;;28.77;22.33;;;13.60;99.90;;;;;;6178627;23;20156;-82
2021/04/22 11:28:57;;;;;;;28.65;20.55;;;13.50;99.90;;;;;;6173579;23;20017;-82
2021/04/22 11:31:26;;;;;;;29.23;21.90;;;13.40;99.90;;;;;;6152248;23;20032;-81
2021/04/22 11:34:05;;;;;;;26.08;19.98;;;13.40;99.90;;;;;;6173880;23;20017;-82
2021/04/22 11:36:33;;;;;;;29.13;21.80;;;13.50;99.90;;;;;;6149463;23;20017;-81
2021/04/22 11:40:08;;;;;;;32.28;22.17;;;13.60;99.90;;;;;;6183043;23;20036;-81
2021/04/22 11:43:24;;;;;;;29.45;20.50;;;13.60;99.90;;;;;;6198479;23;20017;-81
2021/04/22 12:03:29;;;;;;;27.05;19.90;;;14.00;99.90;;;;;;6224530;22;20362;-82
2021/04/22 12:05:59;;;;;;;26.92;21.27;;;14.40;99.90;;;;;;6258260;22;20046;-76
2021/04/22 12:08:37;;;;;;;29.63;21.27;;;14.40;99.90;;;;;;6274873;22;20011;-75
2021/04/22 12:15:19;;;;;;;28.63;20.67;;;14.60;99.90;;;;;;6291788;22;20014;-81
2021/04/22 12:17:46;;;;;;;28.75;22.95;;;14.70;99.90;;;;;;6228482;22;20044;-82
2021/04/22 12:20:18;;;;;;;25.73;20.00;;;14.40;98.90;;;;;;6229756;22;20016;-81
2021/04/22 12:22:48;;;;;;;28.88;21.98;;;14.40;99.10;;;;;;6252450;22;20352;-80
2021/04/22 12:25:23;;;;;;;25.83;20.98;;;14.30;99.30;;;;;;6225113;22;20038;-81
2021/04/22 12:27:56;;;;;;;24.80;19.20;;;14.10;96.80;;;;;;6223866;22;20011;-79
2021/04/22 12:30:32;;;;;;;29.00;19.90;;;14.20;98.10;;;;;;6250369;22;20054;-81
2021/04/22 12:33:22;;;;;;;23.83;17.98;;;14.40;99.70;;;;;;6259652;22;20022;-81
2021/04/22 12:35:58;;;;;;;23.45;17.73;;;14.50;96.50;;;;;;6224896;22;20015;-81
2021/04/22 12:38:28;;;;;;;24.17;18.25;;;14.40;94.80;;;;;;6225421;22;20039;-82
2021/04/22 12:41:10;;;;;;;23.52;18.17;;;14.10;94.90;;;;;;6201899;22;20423;-82
2021/04/22 12:43:39;;;;;;;24.00;19.55;;;13.90;95.80;;;;;;6253402;22;20099;-82
2021/04/22 12:46:11;;;;;;;28.52;19.83;;;13.80;96.30;;;;;;6228283;22;20026;-82
2021/04/22 12:48:41;;;;;;;27.00;20.27;;;13.70;98.00;;;;;;6228170;22;20365;-82
2021/04/22 12:51:14;;;;;;;28.63;18.95;;;13.70;98.80;;;;;;6230280;22;20018;-82
2021/04/22 12:53:43;;;;;;;24.35;17.65;;;13.70;98.20;;;;;;6227303;22;20326;-81
2021/04/22 12:56:13;;;;;;;25.92;17.92;;;13.60;95.70;;;;;;6227447;22;20039;-82
2021/04/22 12:58:46;;;;;;;21.80;17.00;;;13.60;95.10;;;;;;6227813;22;20015;-82
2021/04/22 13:01:17;;;;;;;21.92;16.67;;;13.70;95.20;;;;;;6228497;22;20019;-82
2021/04/22 13:03:50;;;;;;;24.55;19.35;;;13.90;95.20;;;;;;6240253;22;20099;-82
2021/04/22 13:06:19;;;;;;;23.55;16.08;;;14.10;96.00;;;;;;6253253;22;20016;-81
2021/04/22 13:08:56;;;;;;;22.10;13.45;;;14.20;92.30;;;;;;6252495;22;20027;-82
2021/04/22 13:11:33;;;;;;;20.85;15.18;;;14.30;91.50;;;;;;6256536;22;20016;-82
2021/04/22 13:21:05;;;;;;;23.33;17.27;;;15.10;91.80;;;;;;6283420;22;19999;-83
2021/04/22 13:26:33;;;;;;;16.40;12.80;;;15.40;87.90;;;;;;6306047;22;20088;-82
2021/04/22 13:29:11;;;;;;;15.52;12.55;;;14.80;80.10;;;;;;6283042;22;20018;-82
2021/04/22 13:31:42;;;;;;;20.08;12.07;;;14.60;79.70;;;;;;6258328;22;20015;-83
2021/04/22 13:34:16;;;;;;;24.27;15.52;;;14.50;79.40;;;;;;6295615;22;20019;-81
2021/04/22 13:36:51;;;;;;;28.23;20.58;;;14.60;79.20;;;;;;6283888;22;20413;-82
2021/04/22 14:09:07;;;;;;;16.63;10.40;;;16.10;63.70;;;;;;6326020;22;20054;-82
2021/04/22 14:14:47;;;;;;;14.30;9.02;;;16.40;58.70;;;;;;6297184;22;20056;-82
2021/04/22 14:17:19;;;;;;;10.00;7.55;;;16.50;58.00;;;;;;6274885;22;20015;-81
2021/04/22 14:24:00;;;;;;;12.50;7.47;;;16.80;55.20;;;;;;6276408;22;20042;-80
2021/04/22 14:26:33;;;;;;;13.25;10.65;;;16.90;52.20;;;;;;6294476;22;20098;-80
2021/04/22 14:29:07;;;;;;;9.20;6.22;;;16.50;51.70;;;;;;6294418;22;20026;-82
2021/04/22 14:32:04;;;;;;;13.30;7.05;;;16.20;52.50;;;;;;6335171;22;20021;-81
2021/04/22 14:34:31;;;;;;;12.98;6.72;;;16.00;51.50;;;;;;6264543;22;20015;-83
2021/04/22 14:37:32;;;;;;;9.30;5.30;;;15.90;52.30;;;;;;6296763;22;20045;-82
2021/04/22 14:40:50;;;;;;;7.88;6.57;;;15.80;51.40;;;;;;6324997;22;20045;-82
2021/04/22 14:43:22;;;;;;;5.95;3.88;;;15.60;48.30;;;;;;6256870;22;20015;-82
2021/04/22 14:45:49;;;;;;;5.07;2.80;;;15.60;48.10;;;;;;6280329;22;20030;-82
2021/04/22 14:48:20;;;;;;;6.10;3.22;;;16.00;47.50;;;;;;6280416;22;20046;-82
2021/04/22 14:50:47;;;;;;;8.93;4.35;;;16.30;45.30;;;;;;6280378;22;20038;-82
2021/04/22 14:53:14;;;;;;;5.88;4.05;;;16.70;47.30;;;;;;6258458;22;20023;-81
2021/04/22 14:55:41;;;;;;;8.75;4.10;;;16.60;45.10;;;;;;6282079;22;20015;-81
2021/04/22 14:58:33;;;;;;;7.65;3.35;;;16.70;44.70;;;;;;6263593;22;20452;-82
2021/04/22 15:01:00;;;;;;;5.63;4.53;;;16.70;44.00;;;;;;6257274;22;20020;-80
2021/04/22 15:03:26;;;;;;;7.25;3.38;;;16.90;43.10;;;;;;6281841;22;20019;-77
2021/04/22 15:05:58;;;;;;;5.13;3.08;;;17.10;43.10;;;;;;6257050;22;20106;-81
2021/04/22 15:08:30;;;;;;;4.43;2.53;;;17.40;41.20;;;;;;6255147;22;20027;-80
2021/04/22 15:11:03;;;;;;;5.38;3.17;;;17.80;39.30;;;;;;6279094;22;20024;-80
2021/04/22 15:13:36;;;;;;;5.20;3.00;;;18.00;37.40;;;;;;6279119;22;20018;-81
2021/04/22 15:16:03;;;;;;;5.72;2.75;;;18.10;37.10;;;;;;6253435;22;20329;-80
2021/04/22 15:18:31;;;;;;;7.15;2.63;;;18.10;37.50;;;;;;6277613;22;20444;-80
2021/04/22 15:21:02;;;;;;;5.22;3.25;;;18.20;37.20;;;;;;6276055;22;20016;-79
2021/04/22 15:23:28;;;;;;;4.30;2.75;;;18.30;37.50;;;;;;6258643;22;20106;-81
2021/04/22 15:26:00;;;;;;;8.93;3.55;;;18.20;35.80;;;;;;6261148;22;20015;-82
2021/04/22 15:28:32;;;;;;;5.07;3.20;;;18.10;36.20;;;;;;6256804;22;20019;-81
2021/04/22 15:31:04;;;;;;;6.03;3.10;;;18.30;35.80;;;;;;6280950;22;20487;-81
2021/04/22 15:33:36;;;;;;;6.07;2.58;;;18.40;35.50;;;;;;6277227;22;20486;-80
2021/04/22 15:36:03;;;;;;;6.68;2.58;;;18.30;34.60;;;;;;6255038;22;20035;-80